Main page
METAR-TAF:

METAR-TAF

Airports :

Shanghai Pudong International Airport

Shanghai-Pudong, China

latitude: 31-07N, longitude: 121-46E, elevation: 4 m

Current weather observation

The report was made 24 minutes ago, at 23:00 UTC
Wind 6 kt from the West/Southwest
Temperature 4°C
Humidity 70%
Pressure 1025 hPa
Visibility: 6000 m

METAR: ZSPD 212300Z 24003MPS 6000 NSC 04/M01 Q1025 NOSIG

Time: 07:24 (23:24 UTC)

Forecast

The report was made 8 hours and 14 minutes ago, at 15:10 UTC
Forecast valid from 21 at 18 UTC to 22 at 18 UTC
Wind 8 kt from the West
Visibility: 5000 m
Scattered clouds at a height of 3000 ft
mist

TAF: ZSPD 211510Z 2118/2218 27004MPS 5000 BR SCT030 TX11/2206Z TN00/2121Z

Weather observations and forecasts of more than 4000 airports (METAR and TAF reports).

The available stations are represented by yellow and red dots on the map.

Hover mouse over dot to see the name of the station.

Then click to see weather observations and forecasts.

To change the map : click on the green buttons with a black cross to zoom in, on the green button with a dash to zoom out, or on the green arrows for adjacent maps.


METAR-TAF: